Time;durP1;ratioP1;P1;durP2;ratioP2;P2;SDS_P1;SDS_P2;PMS_P1;PMS_P2;Temp;Humidity;BMP_temperature;BMP_pressure;BME280_temperature;BME280_humidity;BME280_pressure;Samples;Min_cycle;Max_cycle;Signal;HPM_P1;HPM_P2
2023/10/16 00:00:41;;;;;;;;;;;;;;;4.41;100.00;98852.66;136783;1282;22543;-81
2023/10/16 00:04:02;;;;;;;;;;;;;;;4.41;100.00;98852.98;136807;1282;22397;-81
2023/10/16 00:07:03;;;;;;;;;;;;;;;4.41;100.00;98854.70;136783;1282;22445;-81
2023/10/16 00:10:11;;;;;;;;;;;;;;;4.42;100.00;98856.29;136748;1282;22371;-81
2023/10/16 00:13:12;;;;;;;;;;;;;;;4.45;100.00;98857.61;136755;1282;22369;-80
2023/10/16 00:16:16;;;;;;;;;;;;;;;4.46;100.00;98853.70;136694;1282;22302;-81
2023/10/16 00:19:17;;;;;;;;;;;;;;;4.48;100.00;98854.29;136695;1282;22314;-81
2023/10/16 00:22:19;;;;;;;;;;;;;;;4.51;100.00;98854.36;136692;1282;22824;-81
2023/10/16 00:25:24;;;;;;;;;;;;;;;4.53;100.00;98859.10;136696;1282;22332;-81
2023/10/16 00:28:26;;;;;;;;;;;;;;;4.60;100.00;98859.36;136689;1282;22350;-81
2023/10/16 00:31:32;;;;;;;;;;;;;;;4.69;100.00;98858.63;136687;1282;22445;-81
2023/10/16 00:34:33;;;;;;;;;;;;;;;4.79;100.00;98859.16;136671;1282;22809;-81
2023/10/16 00:37:34;;;;;;;;;;;;;;;4.88;100.00;98863.27;136685;1282;22432;-81
2023/10/16 00:40:36;;;;;;;;;;;;;;;4.96;100.00;98864.41;136689;1282;22818;-82
2023/10/16 00:43:37;;;;;;;;;;;;;;;5.01;100.00;98862.84;136672;1282;22297;-81
2023/10/16 00:46:38;;;;;;;;;;;;;;;5.09;100.00;98867.77;136675;1282;22339;-81
2023/10/16 00:49:39;;;;;;;;;;;;;;;5.15;100.00;98864.20;136683;1282;22816;-81
2023/10/16 00:52:42;;;;;;;;;;;;;;;5.21;100.00;98866.98;136679;1282;22347;-81
2023/10/16 00:55:43;;;;;;;;;;;;;;;5.25;100.00;98867.11;136694;1282;22375;-81
2023/10/16 00:58:47;;;;;;;;;;;;;;;5.29;100.00;98867.09;136661;1282;22377;-81
2023/10/16 01:01:51;;;;;;;;;;;;;;;5.33;100.00;98865.50;136686;1282;22365;-82
2023/10/16 01:04:52;;;;;;;;;;;;;;;5.37;100.00;98865.27;136686;1282;22368;-81
2023/10/16 01:07:54;;;;;;;;;;;;;;;5.41;100.00;98863.71;136685;1282;22424;-81
2023/10/16 01:10:57;;;;;;;;;;;;;;;5.47;100.00;98867.17;136692;1282;22363;-81
2023/10/16 01:13:58;;;;;;;;;;;;;;;5.51;100.00;98865.23;136709;1282;22353;-81
2023/10/16 01:17:00;;;;;;;;;;;;;;;5.54;100.00;98866.52;136705;1282;22885;-81
2023/10/16 01:20:01;;;;;;;;;;;;;;;5.54;100.00;98864.62;136687;1282;22422;-81
2023/10/16 01:23:04;;;;;;;;;;;;;;;5.57;100.00;98866.77;136683;1282;22513;-81
2023/10/16 01:26:06;;;;;;;;;;;;;;;5.59;100.00;98867.04;136696;1282;22372;-82
2023/10/16 01:29:08;;;;;;;;;;;;;;;5.60;100.00;98871.54;136692;1282;22913;-82
2023/10/16 01:32:10;;;;;;;;;;;;;;;5.61;100.00;98870.20;136700;1282;22343;-82
2023/10/16 01:35:11;;;;;;;;;;;;;;;5.63;100.00;98867.32;136685;1282;22377;-81
2023/10/16 01:38:15;;;;;;;;;;;;;;;5.66;100.00;98866.92;136712;1282;22481;-81
2023/10/16 01:41:18;;;;;;;;;;;;;;;5.70;100.00;98869.45;136674;1282;22480;-81
2023/10/16 01:44:19;;;;;;;;;;;;;;;5.71;100.00;98876.91;136687;1282;22370;-78
2023/10/16 01:47:20;;;;;;;;;;;;;;;5.72;100.00;98873.48;136682;1282;22363;-81
2023/10/16 01:50:21;;;;;;;;;;;;;;;5.73;100.00;98875.27;136654;1282;22328;-82
2023/10/16 01:53:25;;;;;;;;;;;;;;;5.75;100.00;98867.54;136680;1282;22322;-82
2023/10/16 01:56:27;;;;;;;;;;;;;;;5.78;100.00;98866.59;136678;1282;22361;-81
2023/10/16 01:59:29;;;;;;;;;;;;;;;5.80;100.00;98867.00;136704;1282;22337;-82
2023/10/16 02:02:30;;;;;;;;;;;;;;;5.80;100.00;98865.80;136682;1282;22363;-80
2023/10/16 02:05:32;;;;;;;;;;;;;;;5.81;100.00;98864.27;136685;1282;22425;-81
2023/10/16 02:08:33;;;;;;;;;;;;;;;5.83;100.00;98860.17;136677;1275;22424;-83
2023/10/16 02:11:36;;;;;;;;;;;;;;;5.87;100.00;98857.20;136688;1282;22346;-81
2023/10/16 02:14:40;;;;;;;;;;;;;;;5.89;100.00;98863.64;136689;1282;23062;-80
2023/10/16 02:17:42;;;;;;;;;;;;;;;5.90;100.00;98863.88;136686;1282;22387;-81
2023/10/16 02:20:45;;;;;;;;;;;;;;;5.91;100.00;98864.27;136681;1282;22359;-81
2023/10/16 02:23:46;;;;;;;;;;;;;;;5.92;100.00;98867.06;136710;1282;22332;-82
2023/10/16 02:26:56;;;;;;;;;;;;;;;5.94;100.00;98872.45;136711;1282;22396;-81
2023/10/16 02:30:14;;;;;;;;;;;;;;;5.96;100.00;98879.08;136697;1282;22917;-82
2023/10/16 02:33:18;;;;;;;;;;;;;;;5.95;100.00;98879.92;136714;1282;23317;-80
2023/10/16 02:36:19;;;;;;;;;;;;;;;5.97;100.00;98892.42;136681;1282;22359;-81
2023/10/16 02:39:35;;;;;;;;;;;;;;;5.96;100.00;98891.54;136687;1282;22377;-81
2023/10/16 02:42:41;;;;;;;;;;;;;;;5.95;100.00;98892.19;136700;1282;22370;-81
2023/10/16 02:45:46;;;;;;;;;;;;;;;5.95;100.00;98891.48;136681;1282;22289;-82
2023/10/16 02:48:47;;;;;;;;;;;;;;;5.95;100.00;98892.36;136680;1282;22361;-81
2023/10/16 02:51:48;;;;;;;;;;;;;;;5.96;100.00;98885.49;136665;1282;22381;-80
2023/10/16 02:54:49;;;;;;;;;;;;;;;5.95;100.00;98891.67;136664;1282;22365;-82
2023/10/16 02:57:50;;;;;;;;;;;;;;;5.94;100.00;98893.70;136693;1282;22828;-81
2023/10/16 03:00:53;;;;;;;;;;;;;;;5.92;100.00;98894.88;136668;1282;22385;-81
2023/10/16 03:03:54;;;;;;;;;;;;;;;5.94;100.00;98901.14;136665;1282;22373;-81
2023/10/16 03:06:55;;;;;;;;;;;;;;;5.96;100.00;98901.88;136664;1282;22586;-82
2023/10/16 03:09:56;;;;;;;;;;;;;;;5.96;100.00;98901.72;136657;1282;22344;-81
2023/10/16 03:13:05;;;;;;;;;;;;;;;5.96;100.00;98908.80;136675;1282;22340;-82
2023/10/16 03:16:07;;;;;;;;;;;;;;;5.96;100.00;98910.88;136692;1282;22369;-81
2023/10/16 03:19:09;;;;;;;;;;;;;;;5.95;100.00;98914.81;136718;1282;22382;-82
2023/10/16 03:22:12;;;;;;;;;;;;;;;5.94;100.00;98919.97;136670;1282;22463;-81
2023/10/16 03:25:25;;;;;;;;;;;;;;;5.95;100.00;98923.13;136671;1282;22364;-81
2023/10/16 03:28:26;;;;;;;;;;;;;;;5.97;100.00;98923.70;136708;1282;22814;-82
2023/10/16 03:31:28;;;;;;;;;;;;;;;6.00;100.00;98928.80;136769;1282;22356;-80
2023/10/16 03:34:31;;;;;;;;;;;;;;;6.01;100.00;98930.71;136766;1282;22332;-80
2023/10/16 03:37:35;;;;;;;;;;;;;;;6.09;100.00;98936.70;136787;1282;23430;-80
2023/10/16 03:40:36;;;;;;;;;;;;;;;6.13;100.00;98937.88;136774;1282;22278;-80
2023/10/16 03:43:37;;;;;;;;;;;;;;;6.23;100.00;98934.19;136729;1282;22343;-80
2023/10/16 03:46:39;;;;;;;;;;;;;;;6.25;100.00;98940.48;136735;1271;22373;-80
2023/10/16 03:49:41;;;;;;;;;;;;;;;6.18;100.00;98945.79;136660;1282;22817;-81
2023/10/16 03:52:42;;;;;;;;;;;;;;;6.09;100.00;98943.09;136660;1282;22400;-81
2023/10/16 03:55:47;;;;;;;;;;;;;;;6.03;100.00;98937.52;136550;1282;22487;-81
2023/10/16 03:58:53;;;;;;;;;;;;;;;6.01;100.00;98940.06;136673;1278;22388;-81
2023/10/16 04:01:54;;;;;;;;;;;;;;;6.00;100.00;98940.89;136598;1282;22382;-82
2023/10/16 04:04:58;;;;;;;;;;;;;;;6.00;100.00;98941.05;136673;1282;22344;-81
2023/10/16 04:08:02;;;;;;;;;;;;;;;5.99;100.00;98941.38;136684;1282;22427;-81
2023/10/16 04:11:03;;;;;;;;;;;;;;;6.02;100.00;98940.44;136666;1282;22353;-81
2023/10/16 04:14:14;;;;;;;;;;;;;;;6.00;100.00;98943.32;136642;1282;22315;-81
2023/10/16 04:17:15;;;;;;;;;;;;;;;5.99;100.00;98943.79;136653;1282;22468;-82
2023/10/16 04:20:43;;;;;;;;;;;;;;;5.98;100.00;98945.67;136634;1282;22935;-77
2023/10/16 04:23:52;;;;;;;;;;;;;;;5.96;100.00;98944.38;136654;1282;22322;-80
2023/10/16 04:26:57;;;;;;;;;;;;;;;5.94;100.00;98945.54;136652;1278;22815;-82
2023/10/16 04:33:44;;;;;;;;;;;;;;;5.92;100.00;98945.12;136630;1282;22714;-81
2023/10/16 04:36:52;;;;;;;;;;;;;;;5.91;100.00;98950.43;136621;1282;22476;-80
2023/10/16 04:43:19;;;;;;;;;;;;;;;5.79;100.00;98946.39;136657;1282;22334;-80
2023/10/16 04:46:20;;;;;;;;;;;;;;;5.74;100.00;98945.38;136605;1282;22971;-81
2023/10/16 04:49:28;;;;;;;;;;;;;;;5.71;100.00;98947.02;136593;1282;22362;-80
2023/10/16 04:56:01;;;;;;;;;;;;;;;5.68;100.00;98944.51;136623;1282;23286;-80
2023/10/16 04:59:11;;;;;;;;;;;;;;;5.67;100.00;98947.57;136564;1282;22390;-80
2023/10/16 05:02:18;;;;;;;;;;;;;;;5.66;100.00;98944.27;136637;1282;22362;-82
2023/10/16 05:05:56;;;;;;;;;;;;;;;5.68;100.00;98940.70;136646;1282;22548;-82
2023/10/16 05:09:53;;;;;;;;;;;;;;;5.70;100.00;98945.09;136644;1282;22387;-83
2023/10/16 05:16:27;;;;;;;;;;;;;;;5.79;100.00;98941.90;136614;1282;22375;-79
2023/10/16 05:19:17;;;;;;;;;;;;;;;5.83;100.00;98946.35;136606;1282;22396;-81
2023/10/16 06:15:50;;;;;;;;;;;;;;;;;;;;;
2023/10/16 06:18:54;;;;;;;;;;;;;;;6.30;100.00;99016.85;136481;1282;23107;-82
2023/10/16 06:21:56;;;;;;;;;;;;;;;6.33;100.00;99021.62;136646;1282;22386;-84
2023/10/16 06:24:58;;;;;;;;;;;;;;;6.38;100.00;99026.11;136628;1282;22773;-84
2023/10/16 06:27:59;;;;;;;;;;;;;;;6.43;100.00;99026.41;136664;1276;22282;-82
2023/10/16 06:31:00;;;;;;;;;;;;;;;6.48;100.00;99032.09;136632;1282;22478;-82
2023/10/16 06:34:05;;;;;;;;;;;;;;;6.50;100.00;99029.73;136633;1282;22557;-82
2023/10/16 06:37:06;;;;;;;;;;;;;;;6.54;100.00;99034.18;136631;1282;22396;-82
2023/10/16 06:40:16;;;;;;;;;;;;;;;6.57;100.00;99036.38;136605;1282;22299;-81
2023/10/16 06:43:22;;;;;;;;;;;;;;;6.61;100.00;99038.73;136654;1282;23087;-83
2023/10/16 06:46:24;;;;;;;;;;;;;;;6.64;100.00;99041.42;136638;1282;22309;-82
2023/10/16 06:49:26;;;;;;;;;;;;;;;6.67;100.00;99040.48;136663;1282;23022;-82
2023/10/16 06:52:28;;;;;;;;;;;;;;;6.69;100.00;99043.83;136668;1275;22329;-82
2023/10/16 06:55:33;;;;;;;;;;;;;;;6.70;100.00;99044.90;136542;1282;22961;-78
2023/10/16 06:58:34;;;;;;;;;;;;;;;6.75;100.00;99047.08;136672;1282;22305;-83
2023/10/16 07:01:35;;;;;;;;;;;;;;;6.79;100.00;99047.91;136746;1282;22371;-82
2023/10/16 07:04:40;;;;;;;;;;;;;;;6.80;100.00;99055.89;136749;1282;22350;-80
2023/10/16 07:07:41;;;;;;;;;;;;;;;6.82;100.00;99058.73;136749;1282;22447;-83
2023/10/16 07:10:48;;;;;;;;;;;;;;;6.85;100.00;99055.73;136697;1282;22368;-81
2023/10/16 07:13:49;;;;;;;;;;;;;;;6.82;100.00;99060.98;136703;1282;22316;-82
2023/10/16 07:16:51;;;;;;;;;;;;;;;6.83;100.00;99063.08;136653;1282;22369;-82
2023/10/16 07:19:55;;;;;;;;;;;;;;;6.82;100.00;99064.62;136600;1282;22436;-82
2023/10/16 07:22:59;;;;;;;;;;;;;;;6.77;100.00;99066.89;136657;1282;22330;-81
2023/10/16 07:26:00;;;;;;;;;;;;;;;6.73;100.00;99063.31;136662;1282;22391;-82
2023/10/16 07:29:02;;;;;;;;;;;;;;;6.85;100.00;99065.39;136653;1282;22873;-81
2023/10/16 07:32:03;;;;;;;;;;;;;;;6.96;100.00;99068.19;136636;1282;22598;-83
2023/10/16 07:35:04;;;;;;;;;;;;;;;7.00;100.00;99067.79;136640;1282;22359;-83
2023/10/16 07:38:05;;;;;;;;;;;;;;;6.96;100.00;99072.88;136636;1282;22399;-81
2023/10/16 07:41:09;;;;;;;;;;;;;;;6.96;100.00;99073.19;136630;1282;22337;-83
2023/10/16 07:44:10;;;;;;;;;;;;;;;6.92;100.00;99075.48;136618;1282;22365;-81
2023/10/16 07:47:11;;;;;;;;;;;;;;;6.87;100.00;99074.98;136640;1282;22733;-84
2023/10/16 07:50:13;;;;;;;;;;;;;;;6.83;100.00;99078.14;136595;1272;22388;-83
2023/10/16 07:53:17;;;;;;;;;;;;;;;6.81;100.00;99079.96;136665;1282;22366;-83
2023/10/16 07:56:19;;;;;;;;;;;;;;;6.79;100.00;99081.83;136678;1282;22856;-82
2023/10/16 07:59:20;;;;;;;;;;;;;;;6.83;100.00;99078.84;136651;1282;22424;-82
2023/10/16 08:02:21;;;;;;;;;;;;;;;6.89;100.00;99079.70;136636;1282;22313;-83
2023/10/16 08:05:23;;;;;;;;;;;;;;;6.91;100.00;99082.55;136656;1282;22963;-82
2023/10/16 08:08:35;;;;;;;;;;;;;;;6.89;100.00;99085.23;136643;1282;22386;-81
2023/10/16 08:11:42;;;;;;;;;;;;;;;6.80;100.00;99088.08;136607;1282;22379;-80
2023/10/16 08:14:45;;;;;;;;;;;;;;;6.71;100.00;99087.98;136614;1282;22964;-83
2023/10/16 08:17:50;;;;;;;;;;;;;;;6.73;100.00;99090.44;136618;1282;22359;-83
2023/10/16 08:21:06;;;;;;;;;;;;;;;6.72;100.00;99097.35;136615;1282;22403;-82
2023/10/16 08:24:07;;;;;;;;;;;;;;;6.68;100.00;99098.09;136647;1282;22844;-82
2023/10/16 08:27:16;;;;;;;;;;;;;;;6.67;100.00;99105.50;136617;1282;22909;-82
2023/10/16 08:30:33;;;;;;;;;;;;;;;6.65;100.00;99101.80;136632;1282;22481;-83
2023/10/16 08:33:35;;;;;;;;;;;;;;;6.64;100.00;99101.75;136635;1282;22337;-81
2023/10/16 08:36:36;;;;;;;;;;;;;;;6.63;100.00;99107.08;136642;1282;22413;-82
2023/10/16 08:39:38;;;;;;;;;;;;;;;6.73;100.00;99105.16;136615;1282;22306;-82
2023/10/16 08:42:48;;;;;;;;;;;;;;;6.86;100.00;99109.55;136612;1282;22761;-82
2023/10/16 08:45:55;;;;;;;;;;;;;;;6.92;100.00;99107.64;136638;1282;22369;-83
2023/10/16 08:48:57;;;;;;;;;;;;;;;6.94;100.00;99112.91;136622;1282;22345;-82
2023/10/16 08:52:04;;;;;;;;;;;;;;;7.02;100.00;99121.98;136633;1282;22340;-82
2023/10/16 08:55:14;;;;;;;;;;;;;;;7.05;100.00;99113.96;136454;1282;199986;-85
2023/10/16 08:58:16;;;;;;;;;;;;;;;7.03;100.00;99118.39;136661;1282;22321;-80
2023/10/16 09:01:17;;;;;;;;;;;;;;;7.04;100.00;99116.86;136670;1282;22424;-83
2023/10/16 09:04:18;;;;;;;;;;;;;;;7.04;100.00;99120.84;136648;1260;22341;-82
2023/10/16 09:07:24;;;;;;;;;;;;;;;7.02;100.00;99123.39;136623;1282;22386;-84
2023/10/16 09:10:33;;;;;;;;;;;;;;;7.02;100.00;99119.42;136614;1282;22410;-82
2023/10/16 09:13:38;;;;;;;;;;;;;;;7.04;100.00;99118.41;136675;1273;22361;-82
2023/10/16 09:16:43;;;;;;;;;;;;;;;7.07;100.00;99117.99;136721;1282;22330;-80
2023/10/16 09:19:46;;;;;;;;;;;;;;;7.16;100.00;99119.98;136712;1282;22363;-80
2023/10/16 09:22:47;;;;;;;;;;;;;;;7.30;100.00;99115.21;136703;1282;22380;-81
2023/10/16 09:25:55;;;;;;;;;;;;;;;7.38;100.00;99115.28;136720;1282;22368;-81
2023/10/16 09:29:03;;;;;;;;;;;;;;;7.54;100.00;99116.61;136662;1282;22341;-82
2023/10/16 09:32:06;;;;;;;;;;;;;;;7.80;100.00;99117.16;136638;1282;22523;-81
2023/10/16 09:35:11;;;;;;;;;;;;;;;8.13;100.00;99114.92;136654;1282;22381;-80
2023/10/16 09:38:17;;;;;;;;;;;;;;;8.42;100.00;99118.27;136663;1282;22387;-83
2023/10/16 09:44:37;;;;;;;;;;;;;;;8.27;100.00;99120.16;136682;1282;22347;-82
2023/10/16 09:47:48;;;;;;;;;;;;;;;8.26;100.00;99116.82;136622;1282;22353;-83
2023/10/16 09:50:49;;;;;;;;;;;;;;;8.34;100.00;99119.65;136674;1282;22350;-83
2023/10/16 09:53:51;;;;;;;;;;;;;;;8.41;100.00;99118.80;136633;1278;22747;-82
2023/10/16 09:56:52;;;;;;;;;;;;;;;8.41;100.00;99122.08;136650;1282;22373;-82
2023/10/16 10:00:16;;;;;;;;;;;;;;;8.33;100.00;99124.30;136653;1282;22354;-80
2023/10/16 10:03:19;;;;;;;;;;;;;;;8.24;100.00;99126.84;136627;1282;22478;-82
2023/10/16 10:06:21;;;;;;;;;;;;;;;8.24;100.00;99125.61;136655;1282;22402;-79
2023/10/16 10:09:31;;;;;;;;;;;;;;;8.21;100.00;99132.83;136630;1282;22445;-80
2023/10/16 10:12:41;;;;;;;;;;;;;;;8.18;100.00;99131.34;136662;1282;22364;-83
2023/10/16 10:15:44;;;;;;;;;;;;;;;8.16;100.00;99129.41;136649;1282;22340;-80
2023/10/16 10:18:47;;;;;;;;;;;;;;;8.09;100.00;99121.59;136677;1282;22533;-83
2023/10/16 10:21:48;;;;;;;;;;;;;;;8.11;100.00;99126.48;136691;1282;22390;-81
2023/10/16 10:24:51;;;;;;;;;;;;;;;8.11;100.00;99122.16;136716;1282;22306;-81
2023/10/16 10:27:52;;;;;;;;;;;;;;;8.23;100.00;99120.91;136775;1282;22335;-81
2023/10/16 10:30:56;;;;;;;;;;;;;;;8.37;100.00;99125.60;136750;1282;22340;-81
2023/10/16 10:33:58;;;;;;;;;;;;;;;8.51;100.00;99113.66;136738;1282;22370;-80
2023/10/16 10:36:59;;;;;;;;;;;;;;;8.68;100.00;99113.56;136696;1282;22545;-81
2023/10/16 10:40:00;;;;;;;;;;;;;;;8.72;100.00;99117.48;136700;1282;22300;-82
2023/10/16 10:43:02;;;;;;;;;;;;;;;8.76;100.00;99116.19;136646;1282;22346;-82
2023/10/16 10:46:03;;;;;;;;;;;;;;;8.89;100.00;99115.11;136633;1282;22828;-81
2023/10/16 10:49:07;;;;;;;;;;;;;;;9.07;100.00;99110.11;136625;1282;22356;-81
2023/10/16 10:52:08;;;;;;;;;;;;;;;9.33;100.00;99106.17;136640;1282;22795;-82
2023/10/16 10:55:18;;;;;;;;;;;;;;;9.47;100.00;99113.06;136622;1282;22308;-82
2023/10/16 10:58:20;;;;;;;;;;;;;;;9.40;100.00;99112.56;136636;1282;22479;-82
2023/10/16 11:01:26;;;;;;;;;;;;;;;9.31;100.00;99118.27;136649;1268;22292;-82
2023/10/16 11:04:33;;;;;;;;;;;;;;;9.34;100.00;99113.66;136652;1282;22332;-82
2023/10/16 11:07:39;;;;;;;;;;;;;;;9.46;100.00;99112.17;136652;1282;22409;-81
2023/10/16 11:10:41;;;;;;;;;;;;;;;9.43;100.00;99113.33;136603;1282;22491;-83
2023/10/16 11:13:43;;;;;;;;;;;;;;;9.38;100.00;99109.05;136658;1282;22378;-82
2023/10/16 11:16:45;;;;;;;;;;;;;;;9.33;100.00;99103.55;136563;1282;22365;-81
2023/10/16 11:19:47;;;;;;;;;;;;;;;9.28;100.00;99115.44;136640;1282;22497;-82
2023/10/16 11:22:48;;;;;;;;;;;;;;;9.27;100.00;99118.89;136670;1282;22335;-82
2023/10/16 11:25:50;;;;;;;;;;;;;;;9.27;100.00;99124.96;136633;1282;23291;-81
2023/10/16 11:28:51;;;;;;;;;;;;;;;9.23;100.00;99123.15;136653;1282;22327;-82
2023/10/16 11:31:53;;;;;;;;;;;;;;;9.24;100.00;99121.27;136641;1282;22424;-80
2023/10/16 11:35:12;;;;;;;;;;;;;;;9.22;100.00;99120.52;136620;1282;22370;-81
2023/10/16 11:38:19;;;;;;;;;;;;;;;9.17;100.00;99124.23;136647;1282;22409;-80
2023/10/16 11:41:20;;;;;;;;;;;;;;;9.04;100.00;99124.13;136641;1282;22437;-79
2023/10/16 11:44:25;;;;;;;;;;;;;;;8.94;100.00;99120.60;136646;1282;22326;-82
2023/10/16 11:47:36;;;;;;;;;;;;;;;8.95;100.00;99120.27;136650;1282;22374;-82
2023/10/16 11:50:38;;;;;;;;;;;;;;;9.13;100.00;99118.41;136656;1282;22703;-82
2023/10/16 11:53:39;;;;;;;;;;;;;;;9.20;100.00;99119.96;136670;1282;22444;-85
2023/10/16 11:56:41;;;;;;;;;;;;;;;9.16;100.00;99120.05;136648;1275;22703;-82
2023/10/16 11:59:42;;;;;;;;;;;;;;;9.10;100.00;99116.45;136658;1282;22807;-81
2023/10/16 12:02:46;;;;;;;;;;;;;;;9.01;100.00;99119.89;136625;1282;22761;-80
2023/10/16 12:05:50;;;;;;;;;;;;;;;8.91;100.00;99118.63;136642;1282;22374;-85
2023/10/16 12:08:51;;;;;;;;;;;;;;;9.11;100.00;99117.66;136640;1282;22402;-84
2023/10/16 12:11:53;;;;;;;;;;;;;;;10.23;100.00;99115.77;136626;1282;22349;-83
2023/10/16 12:14:54;;;;;;;;;;;;;;;11.81;100.00;99118.45;136613;1282;22366;-82
2023/10/16 12:17:55;;;;;;;;;;;;;;;12.65;77.47;99113.04;136631;1282;22351;-80
2023/10/16 12:21:04;;;;;;;;;;;;;;;12.38;60.20;99111.24;136617;1282;22345;-82
2023/10/16 12:24:05;;;;;;;;;;;;;;;12.22;62.91;99110.22;136626;1282;22321;-85
2023/10/16 12:27:07;;;;;;;;;;;;;;;12.67;61.08;99103.45;136637;1282;22343;-85
2023/10/16 12:30:13;;;;;;;;;;;;;;;12.59;60.86;99102.53;136645;1282;22366;-85
2023/10/16 12:33:15;;;;;;;;;;;;;;;12.74;60.63;99099.31;136642;1282;22328;-84
2023/10/16 12:36:16;;;;;;;;;;;;;;;12.79;59.28;99095.69;136626;1282;22340;-86
2023/10/16 12:39:18;;;;;;;;;;;;;;;13.00;60.93;99091.13;136630;1282;22446;-86
2023/10/16 12:42:22;;;;;;;;;;;;;;;13.17;57.94;99092.48;136623;1282;23144;-86
2023/10/16 12:45:23;;;;;;;;;;;;;;;12.78;57.21;99103.19;136612;1282;22409;-85
2023/10/16 12:48:24;;;;;;;;;;;;;;;12.21;58.03;99103.58;136598;1282;22348;-83
2023/10/16 12:51:25;;;;;;;;;;;;;;;11.89;60.02;99107.60;136611;1282;22253;-84
2023/10/16 12:54:26;;;;;;;;;;;;;;;11.80;59.78;99106.09;136579;1282;23078;-83
2023/10/16 12:57:28;;;;;;;;;;;;;;;12.00;62.82;99091.49;136606;1282;22335;-82
2023/10/16 13:00:30;;;;;;;;;;;;;;;12.67;59.57;99094.37;136590;1282;22410;-79
2023/10/16 13:03:33;;;;;;;;;;;;;;;11.98;58.10;99090.77;136588;1282;22439;-82
2023/10/16 13:06:35;;;;;;;;;;;;;;;11.17;59.49;99093.42;136607;1274;22366;-83
2023/10/16 13:09:36;;;;;;;;;;;;;;;10.64;60.65;99097.18;136629;1282;22402;-83
2023/10/16 13:12:37;;;;;;;;;;;;;;;10.22;61.64;99094.02;136571;1282;22765;-82
2023/10/16 13:15:38;;;;;;;;;;;;;;;9.84;61.95;99099.21;136599;1282;22302;-82
2023/10/16 13:18:40;;;;;;;;;;;;;;;9.48;62.15;99099.55;136608;1282;22376;-81
2023/10/16 13:21:41;;;;;;;;;;;;;;;9.31;62.70;99092.23;136578;1282;22411;-83
2023/10/16 13:24:43;;;;;;;;;;;;;;;9.24;62.59;99090.52;136545;1271;22332;-82
2023/10/16 13:27:44;;;;;;;;;;;;;;;9.18;63.51;99087.96;136533;1282;22345;-83
2023/10/16 13:30:45;;;;;;;;;;;;;;;9.21;63.58;99086.46;136560;1282;23198;-83
2023/10/16 13:33:50;;;;;;;;;;;;;;;9.13;64.47;99084.91;136576;1282;22334;-82
2023/10/16 13:36:56;;;;;;;;;;;;;;;9.07;65.32;99087.40;136626;1282;22426;-82
2023/10/16 13:39:57;;;;;;;;;;;;;;;8.95;65.54;99086.77;136640;1282;22253;-82
2023/10/16 13:43:00;;;;;;;;;;;;;;;8.86;66.19;99089.52;136616;1282;22382;-82
2023/10/16 13:46:01;;;;;;;;;;;;;;;8.73;66.54;99088.52;136718;1278;22394;-82
2023/10/16 13:49:03;;;;;;;;;;;;;;;8.62;67.45;99085.47;136767;1282;22338;-82
2023/10/16 13:52:07;;;;;;;;;;;;;;;8.57;67.73;99086.91;136714;1282;22442;-81
2023/10/16 13:55:12;;;;;;;;;;;;;;;8.52;68.49;99088.70;136750;1282;22495;-82
2023/10/16 13:58:13;;;;;;;;;;;;;;;8.47;68.90;99084.08;136726;1275;22348;-82
2023/10/16 14:01:14;;;;;;;;;;;;;;;8.41;69.38;99081.68;136757;1259;22431;-82
2023/10/16 14:04:16;;;;;;;;;;;;;;;8.35;69.76;99079.64;136644;1282;22338;-82
2023/10/16 14:07:19;;;;;;;;;;;;;;;8.34;70.06;99075.96;136636;1282;22410;-81
2023/10/16 14:10:21;;;;;;;;;;;;;;;8.35;69.63;99077.54;136638;1278;22345;-82
2023/10/16 14:13:26;;;;;;;;;;;;;;;8.44;69.82;99075.33;136644;1282;22354;-83
2023/10/16 14:16:32;;;;;;;;;;;;;;;8.48;69.94;99072.66;136636;1282;22557;-82
2023/10/16 14:19:35;;;;;;;;;;;;;;;8.48;69.85;99077.50;136655;1282;22360;-83
2023/10/16 14:22:37;;;;;;;;;;;;;;;8.42;69.63;99085.51;136636;1282;23496;-83
2023/10/16 14:25:45;;;;;;;;;;;;;;;8.34;69.43;99081.14;136639;1282;22977;-82
2023/10/16 14:28:51;;;;;;;;;;;;;;;8.24;69.23;99081.58;136642;1282;22367;-82
2023/10/16 14:31:52;;;;;;;;;;;;;;;8.20;69.76;99083.05;136651;1282;22337;-83
2023/10/16 14:34:53;;;;;;;;;;;;;;;8.18;69.86;99085.59;136649;1282;22450;-83
2023/10/16 14:37:54;;;;;;;;;;;;;;;8.18;70.11;99085.06;136663;1282;22421;-83
2023/10/16 14:40:55;;;;;;;;;;;;;;;8.16;70.25;99092.83;136702;1282;22828;-83
2023/10/16 14:43:56;;;;;;;;;;;;;;;8.21;70.38;99093.64;136661;1282;22383;-82
2023/10/16 14:46:58;;;;;;;;;;;;;;;8.21;70.54;99094.33;136650;1282;22323;-83
2023/10/16 14:50:02;;;;;;;;;;;;;;;8.19;70.50;99093.76;136652;1282;22416;-83
2023/10/16 14:53:06;;;;;;;;;;;;;;;8.15;70.49;99094.52;136686;1282;22373;-82
2023/10/16 14:56:07;;;;;;;;;;;;;;;8.11;70.21;99097.88;136671;1282;22340;-82
2023/10/16 14:59:08;;;;;;;;;;;;;;;8.07;69.77;99100.22;136685;1282;22335;-84
2023/10/16 15:02:12;;;;;;;;;;;;;;;8.04;69.47;99101.16;136668;1282;22385;-84
2023/10/16 15:05:15;;;;;;;;;;;;;;;8.02;69.31;99104.06;136682;1282;22985;-82
2023/10/16 15:08:18;;;;;;;;;;;;;;;8.02;69.68;99104.58;136682;1282;22642;-83
2023/10/16 15:11:20;;;;;;;;;;;;;;;8.05;69.65;99106.06;136664;1282;22380;-82
2023/10/16 15:14:22;;;;;;;;;;;;;;;8.10;69.65;99106.36;136723;1282;22373;-83
2023/10/16 15:17:23;;;;;;;;;;;;;;;8.15;69.95;99104.23;136670;1282;22326;-82
2023/10/16 15:20:26;;;;;;;;;;;;;;;8.13;69.89;99105.22;136660;1282;22293;-83
2023/10/16 15:23:27;;;;;;;;;;;;;;;8.08;70.17;99112.55;136664;1282;22454;-83
2023/10/16 15:26:28;;;;;;;;;;;;;;;7.99;70.64;99111.98;136658;1282;22897;-82
2023/10/16 15:29:29;;;;;;;;;;;;;;;7.91;70.87;99116.45;136678;1282;22827;-83
2023/10/16 15:32:31;;;;;;;;;;;;;;;7.86;71.18;99125.65;136657;1282;22879;-83
2023/10/16 15:35:32;;;;;;;;;;;;;;;7.83;71.46;99121.40;136658;1282;22394;-83
2023/10/16 15:38:33;;;;;;;;;;;;;;;7.80;71.75;99123.76;136688;1282;22502;-84
2023/10/16 15:41:34;;;;;;;;;;;;;;;7.77;72.02;99126.94;136666;1282;22816;-84
2023/10/16 15:44:35;;;;;;;;;;;;;;;7.76;72.29;99128.11;136687;1282;22371;-83
2023/10/16 15:47:36;;;;;;;;;;;;;;;7.73;72.46;99133.59;136699;1282;22460;-83
2023/10/16 15:50:40;;;;;;;;;;;;;;;7.71;72.82;99135.23;136660;1282;22478;-83
2023/10/16 15:53:45;;;;;;;;;;;;;;;7.71;73.30;99137.83;136672;1282;22342;-83
2023/10/16 15:56:48;;;;;;;;;;;;;;;7.72;73.48;99143.24;136697;1282;22915;-83
2023/10/16 15:59:50;;;;;;;;;;;;;;;7.66;73.49;99141.70;136686;1282;22440;-83
2023/10/16 16:02:52;;;;;;;;;;;;;;;7.58;73.75;99147.89;136697;1278;22346;-83
2023/10/16 16:05:55;;;;;;;;;;;;;;;7.50;74.02;99150.25;136693;1282;22346;-83
2023/10/16 16:08:59;;;;;;;;;;;;;;;7.44;74.35;99153.89;136656;1278;22460;-83
2023/10/16 16:12:07;;;;;;;;;;;;;;;7.37;74.46;99152.64;136701;1282;22423;-83
2023/10/16 16:15:11;;;;;;;;;;;;;;;7.28;74.91;99156.70;136661;1282;22407;-83
2023/10/16 16:18:12;;;;;;;;;;;;;;;7.18;75.29;99155.03;136693;1282;22751;-82
2023/10/16 16:21:16;;;;;;;;;;;;;;;7.17;75.70;99160.17;136669;1282;22428;-82
2023/10/16 16:24:17;;;;;;;;;;;;;;;7.18;76.06;99163.16;136680;1282;22417;-83
2023/10/16 16:27:18;;;;;;;;;;;;;;;7.21;76.14;99165.84;136642;1282;22356;-82
2023/10/16 16:30:19;;;;;;;;;;;;;;;7.24;76.26;99171.29;136658;1282;22452;-83
2023/10/16 16:33:21;;;;;;;;;;;;;;;7.24;76.36;99174.08;136683;1282;22355;-83
2023/10/16 16:36:22;;;;;;;;;;;;;;;7.24;76.65;99173.20;136634;1282;22392;-83
2023/10/16 16:39:23;;;;;;;;;;;;;;;7.25;76.72;99176.88;136665;1282;22394;-83
2023/10/16 16:42:24;;;;;;;;;;;;;;;7.27;76.86;99182.80;136650;1278;22867;-82
2023/10/16 16:45:25;;;;;;;;;;;;;;;7.28;76.68;99187.52;136643;1282;22362;-82
2023/10/16 16:48:27;;;;;;;;;;;;;;;7.26;76.67;99188.16;136688;1282;22376;-83
2023/10/16 16:51:29;;;;;;;;;;;;;;;7.25;76.81;99191.73;136630;1282;22367;-83
2023/10/16 16:54:30;;;;;;;;;;;;;;;7.22;76.74;99194.78;136524;1282;22978;-83
2023/10/16 16:57:31;;;;;;;;;;;;;;;7.18;76.85;99198.80;136646;1282;22416;-83